Time;durP1;ratioP1;P1;durP2;ratioP2;P2;SDS_P1;SDS_P2;PMS_P1;PMS_P2;Temp;Humidity;BMP_temperature;BMP_pressure;BME280_temperature;BME280_humidity;BME280_pressure;Samples;Min_cycle;Max_cycle;Signal;HPM_P1;HPM_P2
2024/01/31 00:03:45;;;;;;;19.88;12.73;;;;;;;;;;10450483;28;20029;-54
2024/01/31 00:08:46;;;;;;;21.63;12.32;;;;;;;;;;10449369;28;20025;-57
2024/01/31 00:13:47;;;;;;;22.00;11.65;;;;;;;;;;10447074;28;20036;-56
2024/01/31 00:18:49;;;;;;;18.95;12.00;;;;;;;;;;10448505;28;20025;-54
2024/01/31 00:23:50;;;;;;;19.40;12.30;;;;;;;;;;10449859;28;20028;-55
2024/01/31 00:28:51;;;;;;;19.50;12.05;;;;;;;;;;10437062;28;20057;-55
2024/01/31 00:33:51;;;;;;;15.65;11.85;;;;;;;;;;10448305;28;20203;-55
2024/01/31 00:38:52;;;;;;;15.75;11.02;;;;;;;;;;10446807;28;20049;-55
2024/01/31 00:43:52;;;;;;;20.88;11.20;;;;;;;;;;10447076;28;20036;-56
2024/01/31 00:48:53;;;;;;;16.45;11.35;;;;;;;;;;10435176;28;20028;-56
2024/01/31 00:53:54;;;;;;;16.40;11.18;;;;;;;;;;10448147;28;20067;-56
2024/01/31 00:58:54;;;;;;;16.13;11.07;;;;;;;;;;10440487;28;20029;-56
2024/01/31 01:03:55;;;;;;;15.93;11.73;;;;;;;;;;10447599;28;20056;-55
2024/01/31 01:08:55;;;;;;;16.63;11.90;;;;;;;;;;10447154;28;20033;-55
2024/01/31 01:13:56;;;;;;;14.57;10.48;;;;;;;;;;10444983;28;20087;-55
2024/01/31 01:18:57;;;;;;;16.35;10.73;;;;;;;;;;10445632;28;20033;-58
2024/01/31 01:23:57;;;;;;;15.43;10.95;;;;;;;;;;10437116;28;20056;-58
2024/01/31 01:28:58;;;;;;;13.38;10.18;;;;;;;;;;10430546;28;20021;-58
2024/01/31 01:33:59;;;;;;;15.13;10.60;;;;;;;;;;10434256;28;20029;-58
2024/01/31 01:39:00;;;;;;;17.02;11.43;;;;;;;;;;10445363;28;20060;-57
2024/01/31 01:44:00;;;;;;;16.20;11.13;;;;;;;;;;10445779;28;20079;-58
2024/01/31 01:49:01;;;;;;;16.48;10.25;;;;;;;;;;10445003;28;20380;-58
2024/01/31 01:54:02;;;;;;;14.32;10.48;;;;;;;;;;10412312;28;20108;-58
2024/01/31 01:59:03;;;;;;;14.57;10.13;;;;;;;;;;10396170;28;20048;-61
2024/01/31 02:04:07;;;;;;;14.45;9.82;;;;;;;;;;10424074;28;20025;-57
2024/01/31 02:09:08;;;;;;;14.57;10.88;;;;;;;;;;10428117;28;20087;-58
2024/01/31 02:14:09;;;;;;;16.20;10.73;;;;;;;;;;10422830;28;20086;-58
2024/01/31 02:19:09;;;;;;;14.68;10.52;;;;;;;;;;10444246;28;20055;-57
2024/01/31 02:24:10;;;;;;;14.43;9.57;;;;;;;;;;10443302;28;20021;-59
2024/01/31 02:29:11;;;;;;;13.93;10.07;;;;;;;;;;10407938;28;20045;-58
2024/01/31 02:34:12;;;;;;;13.93;9.50;;;;;;;;;;10406220;28;20353;-59
2024/01/31 02:39:12;;;;;;;13.40;9.30;;;;;;;;;;10406027;28;20049;-59
2024/01/31 02:44:13;;;;;;;12.63;10.15;;;;;;;;;;10405805;28;20033;-59
2024/01/31 02:49:14;;;;;;;14.65;10.13;;;;;;;;;;10406255;28;20137;-58
2024/01/31 02:54:14;;;;;;;14.43;9.77;;;;;;;;;;10401865;28;20034;-56
2024/01/31 02:59:15;;;;;;;14.35;10.02;;;;;;;;;;10393291;28;20021;-57
2024/01/31 03:04:15;;;;;;;15.82;9.93;;;;;;;;;;10396135;28;20060;-62
2024/01/31 03:09:16;;;;;;;15.30;10.48;;;;;;;;;;10405053;28;20021;-58
2024/01/31 03:14:16;;;;;;;13.13;9.85;;;;;;;;;;10395273;28;20497;-58
2024/01/31 03:19:17;;;;;;;12.50;9.05;;;;;;;;;;10405398;28;20029;-58
2024/01/31 03:24:18;;;;;;;11.23;9.13;;;;;;;;;;10409958;28;20428;-58
2024/01/31 03:29:19;;;;;;;14.98;10.15;;;;;;;;;;10404108;28;20029;-58
2024/01/31 03:34:20;;;;;;;13.07;9.52;;;;;;;;;;10412708;28;20401;-55
2024/01/31 03:39:20;;;;;;;13.48;9.32;;;;;;;;;;10413293;28;20204;-62
2024/01/31 03:44:21;;;;;;;11.60;9.30;;;;;;;;;;10413250;28;20095;-53
2024/01/31 03:49:23;;;;;;;11.95;9.13;;;;;;;;;;10400733;28;20052;-62
2024/01/31 03:54:23;;;;;;;12.55;9.43;;;;;;;;;;10412144;28;20036;-53
2024/01/31 03:59:24;;;;;;;11.43;8.63;;;;;;;;;;10412265;28;20119;-50
2024/01/31 04:04:25;;;;;;;10.05;8.77;;;;;;;;;;10399719;28;20033;-52
2024/01/31 04:09:25;;;;;;;11.27;8.82;;;;;;;;;;10411194;28;20033;-55
2024/01/31 04:14:26;;;;;;;10.55;8.20;;;;;;;;;;10411528;28;20032;-57
2024/01/31 04:19:26;;;;;;;10.73;8.55;;;;;;;;;;10411584;28;20025;-57
2024/01/31 04:24:27;;;;;;;9.20;8.00;;;;;;;;;;10411459;28;20022;-58
2024/01/31 04:29:28;;;;;;;10.18;7.72;;;;;;;;;;10411365;28;20026;-58
2024/01/31 04:34:29;;;;;;;11.57;8.50;;;;;;;;;;10410823;28;20039;-57
2024/01/31 04:39:30;;;;;;;11.85;8.82;;;;;;;;;;10411589;28;20136;-57
2024/01/31 04:44:30;;;;;;;10.75;8.45;;;;;;;;;;10410599;28;20041;-58
2024/01/31 04:49:31;;;;;;;12.07;8.68;;;;;;;;;;10410262;28;20397;-57
2024/01/31 04:54:31;;;;;;;11.15;8.60;;;;;;;;;;10409936;28;20038;-55
2024/01/31 04:59:37;;;;;;;11.27;8.30;;;;;;;;;;10410507;28;20037;-57
2024/01/31 05:04:39;;;;;;;10.95;8.48;;;;;;;;;;10397366;28;20025;-57
2024/01/31 05:09:40;;;;;;;10.77;8.15;;;;;;;;;;10409996;28;20485;-57
2024/01/31 05:14:40;;;;;;;9.82;7.80;;;;;;;;;;10410396;28;20037;-57
2024/01/31 05:19:42;;;;;;;11.45;8.13;;;;;;;;;;10408622;28;20075;-57
2024/01/31 05:24:43;;;;;;;11.20;8.60;;;;;;;;;;10408849;28;20052;-57
2024/01/31 05:29:43;;;;;;;11.60;8.10;;;;;;;;;;10405992;28;20064;-58
2024/01/31 05:34:44;;;;;;;11.18;8.20;;;;;;;;;;10408088;28;20029;-58
2024/01/31 05:39:44;;;;;;;9.93;7.82;;;;;;;;;;10408788;28;20041;-58
2024/01/31 05:44:45;;;;;;;13.45;8.60;;;;;;;;;;10407597;28;20030;-59
2024/01/31 05:49:45;;;;;;;10.73;7.97;;;;;;;;;;10408465;28;20025;-59
2024/01/31 05:54:46;;;;;;;11.52;8.85;;;;;;;;;;10407428;28;20029;-58
2024/01/31 05:59:47;;;;;;;12.95;8.80;;;;;;;;;;10408489;28;20053;-56
2024/01/31 06:04:47;;;;;;;9.23;7.20;;;;;;;;;;10395783;28;20029;-54
2024/01/31 06:09:48;;;;;;;10.90;8.63;;;;;;;;;;10407656;28;20032;-58
2024/01/31 06:14:48;;;;;;;9.57;8.13;;;;;;;;;;10407455;28;20036;-58
2024/01/31 06:19:49;;;;;;;11.30;8.10;;;;;;;;;;10406776;28;20029;-61
2024/01/31 06:24:49;;;;;;;10.55;7.53;;;;;;;;;;10414094;28;20029;-60
2024/01/31 06:29:50;;;;;;;10.45;8.60;;;;;;;;;;10412983;28;20025;-59
2024/01/31 06:34:52;;;;;;;11.15;8.27;;;;;;;;;;10411647;28;20040;-58
2024/01/31 06:39:54;;;;;;;10.57;7.78;;;;;;;;;;10406813;28;20095;-58
2024/01/31 06:44:54;;;;;;;9.82;7.45;;;;;;;;;;10408757;28;20115;-58
2024/01/31 06:49:55;;;;;;;10.88;7.63;;;;;;;;;;10408022;28;20036;-60
2024/01/31 06:54:56;;;;;;;12.15;7.70;;;;;;;;;;10442779;28;20273;-59
2024/01/31 06:59:56;;;;;;;15.50;9.70;;;;;;;;;;10412592;28;20504;-60
2024/01/31 07:04:57;;;;;;;25.05;11.05;;;;;;;;;;10387103;28;20036;-65
2024/01/31 07:09:57;;;;;;;16.58;11.80;;;;;;;;;;10404506;28;20017;-67
2024/01/31 07:14:58;;;;;;;25.80;12.13;;;;;;;;;;10402902;28;20056;-58
2024/01/31 07:19:59;;;;;;;21.17;12.68;;;;;;;;;;10404130;28;20040;-58
2024/01/31 07:25:00;;;;;;;19.60;13.10;;;;;;;;;;10406131;28;20037;-58
2024/01/31 07:30:00;;;;;;;17.83;12.18;;;;;;;;;;10405644;28;20025;-58
2024/01/31 07:35:01;;;;;;;19.80;12.18;;;;;;;;;;10405884;28;20037;-58
2024/01/31 07:40:01;;;;;;;18.08;11.80;;;;;;;;;;10417962;28;20061;-58
2024/01/31 07:45:04;;;;;;;19.73;13.25;;;;;;;;;;10405438;28;20381;-57
2024/01/31 07:50:05;;;;;;;17.63;12.18;;;;;;;;;;10404991;28;20037;-56
2024/01/31 07:55:08;;;;;;;20.42;12.45;;;;;;;;;;10405806;28;20118;-57
2024/01/31 08:00:09;;;;;;;20.02;12.38;;;;;;;;;;10404991;28;20040;-56
2024/01/31 08:05:10;;;;;;;17.23;12.23;;;;;;;;;;10392698;28;20477;-57
2024/01/31 08:10:12;;;;;;;18.80;12.77;;;;;;;;;;10408678;28;20249;-57
2024/01/31 08:15:13;;;;;;;20.02;12.43;;;;;;;;;;10412623;28;20029;-57
2024/01/31 08:20:14;;;;;;;18.33;11.25;;;;;;;;;;10412114;28;20029;-57
2024/01/31 08:25:14;;;;;;;16.95;11.65;;;;;;;;;;10411055;28;20075;-57
2024/01/31 08:30:16;;;;;;;20.05;12.70;;;;;;;;;;10411415;28;20034;-57
2024/01/31 08:35:17;;;;;;;16.63;11.93;;;;;;;;;;10411585;28;20091;-58
2024/01/31 08:40:17;;;;;;;19.77;12.77;;;;;;;;;;10411027;28;20045;-62
2024/01/31 08:45:18;;;;;;;23.67;13.68;;;;;;;;;;10411005;28;20040;-58
2024/01/31 08:50:19;;;;;;;18.58;14.07;;;;;;;;;;10411032;28;20033;-57
2024/01/31 08:55:19;;;;;;;18.25;12.73;;;;;;;;;;10410557;28;20032;-58
2024/01/31 09:00:20;;;;;;;18.63;13.23;;;;;;;;;;10409641;28;20034;-58
2024/01/31 09:05:20;;;;;;;23.02;15.13;;;;;;;;;;10396525;28;20031;-57
2024/01/31 09:10:21;;;;;;;19.23;13.07;;;;;;;;;;10410587;28;20036;-58
2024/01/31 09:15:22;;;;;;;19.15;14.23;;;;;;;;;;10410260;28;20152;-58
2024/01/31 09:20:22;;;;;;;23.55;13.95;;;;;;;;;;10408774;28;20034;-58
2024/01/31 09:25:23;;;;;;;21.70;13.40;;;;;;;;;;10409501;28;20103;-57
2024/01/31 09:30:24;;;;;;;19.67;13.88;;;;;;;;;;10409881;28;20033;-57
2024/01/31 09:35:24;;;;;;;22.10;14.07;;;;;;;;;;10408770;28;20049;-61
2024/01/31 09:40:25;;;;;;;19.88;14.38;;;;;;;;;;10408111;28;20053;-62
2024/01/31 09:45:28;;;;;;;23.33;14.40;;;;;;;;;;10407387;28;20044;-61
2024/01/31 09:50:29;;;;;;;18.83;13.77;;;;;;;;;;10406871;28;20030;-56
2024/01/31 09:55:30;;;;;;;21.73;14.30;;;;;;;;;;10408268;28;20029;-57
2024/01/31 10:00:31;;;;;;;18.65;14.25;;;;;;;;;;10408876;28;20034;-60
2024/01/31 10:05:32;;;;;;;20.27;13.35;;;;;;;;;;10396175;28;20033;-59
2024/01/31 10:10:32;;;;;;;19.88;13.30;;;;;;;;;;10408420;28;20052;-57
2024/01/31 10:15:33;;;;;;;20.20;13.43;;;;;;;;;;10408045;28;20040;-57
2024/01/31 10:20:33;;;;;;;21.95;13.55;;;;;;;;;;10407958;28;20030;-57
2024/01/31 10:25:34;;;;;;;20.25;13.57;;;;;;;;;;10407990;28;20051;-58
2024/01/31 10:30:45;;;;;;;19.23;12.93;;;;;;;;;;10406728;28;20393;-57
2024/01/31 10:35:47;;;;;;;14.63;11.88;;;;;;;;;;10394861;28;20033;-57
2024/01/31 10:40:51;;;;;;;16.13;12.32;;;;;;;;;;10406915;28;20025;-58
2024/01/31 10:45:51;;;;;;;19.83;12.63;;;;;;;;;;10405599;28;20082;-57
2024/01/31 10:50:53;;;;;;;22.33;13.05;;;;;;;;;;10406452;28;20142;-57
2024/01/31 10:55:55;;;;;;;18.27;12.90;;;;;;;;;;10406590;28;20095;-57
2024/01/31 11:00:55;;;;;;;16.65;12.75;;;;;;;;;;10404561;28;20583;-58
2024/01/31 11:05:56;;;;;;;20.38;12.27;;;;;;;;;;10393727;28;20094;-57
2024/01/31 11:10:57;;;;;;;22.10;12.68;;;;;;;;;;10405086;28;20051;-57
2024/01/31 11:15:57;;;;;;;18.52;12.20;;;;;;;;;;10405721;28;20052;-57
2024/01/31 11:20:58;;;;;;;22.95;12.70;;;;;;;;;;10405764;28;20037;-60
2024/01/31 11:26:02;;;;;;;19.80;12.20;;;;;;;;;;10421540;28;20048;-57
2024/01/31 11:31:03;;;;;;;15.40;12.05;;;;;;;;;;10429265;28;20017;-58
2024/01/31 11:36:04;;;;;;;17.42;12.68;;;;;;;;;;10449177;23;20049;-59
2024/01/31 11:41:05;;;;;;;19.83;12.38;;;;;;;;;;10403083;28;20059;-59
2024/01/31 11:46:05;;;;;;;15.70;11.38;;;;;;;;;;10405807;28;20040;-60
2024/01/31 11:51:07;;;;;;;17.40;12.20;;;;;;;;;;10440786;28;20371;-60
2024/01/31 11:56:08;;;;;;;18.58;12.65;;;;;;;;;;10439731;28;20083;-59
2024/01/31 12:01:09;;;;;;;17.13;11.52;;;;;;;;;;10431213;28;20033;-59
2024/01/31 12:06:09;;;;;;;15.80;11.93;;;;;;;;;;10400549;28;20033;-60
2024/01/31 12:11:10;;;;;;;16.02;11.55;;;;;;;;;;10412594;28;20369;-59
2024/01/31 12:16:11;;;;;;;19.67;12.27;;;;;;;;;;10410688;28;20026;-59
2024/01/31 12:21:12;;;;;;;15.43;11.50;;;;;;;;;;10412303;28;20025;-59
2024/01/31 12:26:13;;;;;;;17.15;11.38;;;;;;;;;;10398165;28;20041;-59
2024/01/31 12:31:14;;;;;;;14.65;11.05;;;;;;;;;;10411668;28;20052;-59
2024/01/31 12:36:15;;;;;;;17.85;12.07;;;;;;;;;;10409559;28;20042;-59
2024/01/31 12:41:15;;;;;;;17.60;12.48;;;;;;;;;;10411418;28;20036;-59
2024/01/31 12:46:16;;;;;;;15.55;10.95;;;;;;;;;;10411053;28;20241;-59
2024/01/31 12:51:17;;;;;;;15.00;11.35;;;;;;;;;;10411138;28;20504;-60
2024/01/31 12:56:17;;;;;;;23.30;11.68;;;;;;;;;;10406794;28;20048;-59
2024/01/31 13:01:18;;;;;;;21.55;11.57;;;;;;;;;;10407703;28;20033;-59
2024/01/31 13:06:19;;;;;;;15.55;10.93;;;;;;;;;;10406651;28;20048;-59
2024/01/31 13:11:20;;;;;;;15.63;10.95;;;;;;;;;;10409991;28;20042;-59
2024/01/31 13:16:21;;;;;;;14.70;10.85;;;;;;;;;;10409952;28;20037;-60
2024/01/31 13:21:22;;;;;;;14.15;10.77;;;;;;;;;;10406672;28;20030;-59
2024/01/31 13:26:23;;;;;;;19.90;10.90;;;;;;;;;;10403034;28;20037;-59
2024/01/31 13:31:23;;;;;;;14.50;10.27;;;;;;;;;;10408615;28;20017;-60
2024/01/31 13:36:25;;;;;;;13.50;10.45;;;;;;;;;;10407861;28;20061;-59
2024/01/31 13:41:25;;;;;;;13.95;10.73;;;;;;;;;;10431943;28;20071;-60
2024/01/31 13:46:26;;;;;;;15.77;10.85;;;;;;;;;;10436970;28;20059;-60
2024/01/31 13:51:27;;;;;;;15.38;10.32;;;;;;;;;;10417234;28;20268;-59
2024/01/31 13:56:27;;;;;;;13.88;10.93;;;;;;;;;;10411523;28;20276;-60
2024/01/31 14:01:28;;;;;;;14.00;10.23;;;;;;;;;;10410174;28;20099;-59
2024/01/31 14:06:28;;;;;;;15.77;10.85;;;;;;;;;;10395867;28;20025;-59
2024/01/31 14:11:29;;;;;;;14.15;10.68;;;;;;;;;;10411489;28;20033;-59
2024/01/31 14:16:30;;;;;;;14.32;11.13;;;;;;;;;;10407691;28;20040;-60
2024/01/31 14:21:30;;;;;;;18.13;10.95;;;;;;;;;;10407805;28;20449;-59
2024/01/31 14:26:31;;;;;;;13.00;9.80;;;;;;;;;;10407169;28;20409;-59
2024/01/31 14:31:31;;;;;;;16.25;10.05;;;;;;;;;;10412203;28;20357;-60
2024/01/31 14:36:37;;;;;;;18.50;10.40;;;;;;;;;;10410720;28;20049;-60
2024/01/31 14:41:45;;;;;;;14.98;10.00;;;;;;;;;;10410595;28;20029;-60
2024/01/31 14:46:46;;;;;;;13.70;9.48;;;;;;;;;;10407166;28;20040;-60
2024/01/31 14:51:46;;;;;;;12.65;9.57;;;;;;;;;;10409736;28;20080;-60
2024/01/31 14:56:49;;;;;;;15.68;9.70;;;;;;;;;;10408509;28;20033;-59
2024/01/31 15:01:49;;;;;;;12.25;9.48;;;;;;;;;;10404407;28;20033;-60
2024/01/31 15:06:50;;;;;;;13.68;10.18;;;;;;;;;;10400805;28;20032;-60
2024/01/31 15:11:51;;;;;;;13.15;9.48;;;;;;;;;;10406406;28;20468;-60
2024/01/31 15:16:51;;;;;;;13.25;9.50;;;;;;;;;;10405027;28;20017;-60
2024/01/31 15:21:52;;;;;;;10.77;8.93;;;;;;;;;;10411866;28;20358;-60
2024/01/31 15:26:52;;;;;;;16.05;10.23;;;;;;;;;;10405694;28;20036;-60
2024/01/31 15:31:53;;;;;;;14.73;10.30;;;;;;;;;;10411863;28;20034;-60
2024/01/31 15:36:56;;;;;;;15.98;9.50;;;;;;;;;;10412600;28;20044;-60
2024/01/31 15:41:56;;;;;;;11.90;9.00;;;;;;;;;;10412207;28;20554;-60
2024/01/31 15:46:57;;;;;;;11.55;9.75;;;;;;;;;;10405780;28;20033;-60
2024/01/31 15:51:58;;;;;;;12.98;9.10;;;;;;;;;;10408642;28;20477;-60
2024/01/31 15:56:58;;;;;;;12.32;8.90;;;;;;;;;;10404961;28;20037;-60
2024/01/31 16:01:59;;;;;;;10.65;8.40;;;;;;;;;;10404225;28;20402;-59
2024/01/31 16:07:01;;;;;;;11.82;9.20;;;;;;;;;;10406069;28;20480;-60
2024/01/31 16:12:02;;;;;;;12.68;9.40;;;;;;;;;;10414402;28;20467;-59
2024/01/31 16:17:02;;;;;;;12.30;9.07;;;;;;;;;;10404642;28;20040;-60
2024/01/31 16:22:03;;;;;;;11.27;8.30;;;;;;;;;;10421394;28;20041;-61
2024/01/31 16:27:04;;;;;;;16.77;8.85;;;;;;;;;;10404329;28;20021;-60
2024/01/31 16:32:05;;;;;;;12.32;9.13;;;;;;;;;;10418704;28;20029;-60
2024/01/31 16:37:05;;;;;;;13.93;9.02;;;;;;;;;;10411985;28;20045;-60
2024/01/31 16:42:06;;;;;;;11.85;8.93;;;;;;;;;;10421054;28;20021;-60
2024/01/31 16:47:07;;;;;;;17.08;9.57;;;;;;;;;;10417115;28;20025;-60
2024/01/31 16:52:07;;;;;;;11.82;9.13;;;;;;;;;;10419808;28;20025;-60
2024/01/31 16:57:08;;;;;;;12.65;8.73;;;;;;;;;;10410316;28;20138;-61
2024/01/31 17:02:08;;;;;;;13.45;9.43;;;;;;;;;;10419750;28;20044;-61
2024/01/31 17:07:09;;;;;;;10.27;8.55;;;;;;;;;;10417915;28;20032;-60
2024/01/31 17:12:10;;;;;;;17.27;8.93;;;;;;;;;;10423708;28;20030;-60
2024/01/31 17:17:10;;;;;;;11.48;8.65;;;;;;;;;;10406680;28;20021;-60
2024/01/31 17:22:12;;;;;;;11.45;8.43;;;;;;;;;;10412543;28;20033;-61
2024/01/31 17:27:12;;;;;;;14.05;8.68;;;;;;;;;;10409750;28;20033;-60
2024/01/31 17:32:13;;;;;;;10.57;7.90;;;;;;;;;;10409744;28;20025;-61
2024/01/31 17:37:14;;;;;;;12.00;8.55;;;;;;;;;;10403479;28;20498;-60
2024/01/31 17:42:15;;;;;;;12.63;8.52;;;;;;;;;;10414314;28;20029;-61
2024/01/31 17:47:15;;;;;;;9.98;8.20;;;;;;;;;;10408102;28;20029;-61
2024/01/31 17:52:16;;;;;;;10.80;7.75;;;;;;;;;;10413112;28;20018;-61
2024/01/31 17:57:17;;;;;;;14.30;8.98;;;;;;;;;;10400756;28;20029;-61
2024/01/31 18:02:19;;;;;;;12.07;8.60;;;;;;;;;;10399658;28;20057;-61
2024/01/31 18:07:20;;;;;;;15.82;8.85;;;;;;;;;;10398589;28;20041;-61
2024/01/31 18:12:21;;;;;;;10.95;7.95;;;;;;;;;;10407786;28;20017;-62
2024/01/31 18:17:21;;;;;;;10.85;8.13;;;;;;;;;;10413291;28;20143;-60
2024/01/31 18:22:22;;;;;;;12.25;9.02;;;;;;;;;;10413214;28;20155;-61
2024/01/31 18:27:23;;;;;;;11.35;8.43;;;;;;;;;;10438575;28;20025;-61
2024/01/31 18:32:24;;;;;;;16.45;9.27;;;;;;;;;;10428025;28;20389;-61
2024/01/31 18:37:25;;;;;;;13.55;9.27;;;;;;;;;;10408691;28;20141;-61
2024/01/31 18:42:26;;;;;;;14.55;9.10;;;;;;;;;;10417956;28;20461;-61
2024/01/31 18:47:27;;;;;;;10.75;8.57;;;;;;;;;;10425581;28;20029;-61
2024/01/31 18:52:28;;;;;;;15.43;9.20;;;;;;;;;;10415183;28;20044;-61
2024/01/31 18:57:28;;;;;;;11.88;8.70;;;;;;;;;;10405480;28;20029;-60
2024/01/31 19:02:29;;;;;;;13.60;9.48;;;;;;;;;;10422921;28;20031;-60
2024/01/31 19:07:29;;;;;;;13.80;9.35;;;;;;;;;;10443176;28;20029;-60
2024/01/31 19:12:30;;;;;;;15.93;9.88;;;;;;;;;;10443089;28;20033;-60
2024/01/31 19:17:30;;;;;;;15.20;9.10;;;;;;;;;;10419889;28;20037;-60
2024/01/31 19:22:31;;;;;;;16.00;9.60;;;;;;;;;;10408343;28;20169;-60
2024/01/31 19:27:32;;;;;;;23.17;9.73;;;;;;;;;;10414056;28;20033;-60
2024/01/31 19:32:32;;;;;;;13.82;9.30;;;;;;;;;;10385180;28;20174;-60
2024/01/31 19:37:33;;;;;;;14.75;9.27;;;;;;;;;;10407495;28;20037;-59
2024/01/31 19:42:34;;;;;;;14.15;8.85;;;;;;;;;;10415383;28;20160;-60
2024/01/31 19:47:35;;;;;;;19.50;8.63;;;;;;;;;;10415332;28;20021;-60
2024/01/31 19:52:37;;;;;;;14.20;8.73;;;;;;;;;;10424391;28;20025;-60
2024/01/31 19:57:38;;;;;;;12.80;9.00;;;;;;;;;;10429235;28;20543;-60
2024/01/31 20:02:39;;;;;;;16.25;8.85;;;;;;;;;;10399238;28;20026;-61
2024/01/31 20:07:39;;;;;;;16.75;9.52;;;;;;;;;;10401213;28;20025;-61
2024/01/31 20:12:40;;;;;;;15.70;9.07;;;;;;;;;;10408583;28;20025;-60
2024/01/31 20:17:41;;;;;;;14.18;9.30;;;;;;;;;;10422895;28;20036;-60
2024/01/31 20:22:42;;;;;;;14.05;8.65;;;;;;;;;;10440289;28;20020;-60
2024/01/31 20:27:43;;;;;;;14.98;8.65;;;;;;;;;;10435907;28;20271;-60
2024/01/31 20:32:44;;;;;;;13.80;9.07;;;;;;;;;;10446721;28;20566;-60
2024/01/31 20:37:44;;;;;;;14.15;9.23;;;;;;;;;;10448041;28;20040;-61
2024/01/31 20:42:45;;;;;;;13.23;8.85;;;;;;;;;;10448176;28;20025;-62
2024/01/31 20:47:45;;;;;;;15.27;9.27;;;;;;;;;;10448224;28;20040;-61
2024/01/31 20:52:46;;;;;;;13.10;8.82;;;;;;;;;;10442176;28;20025;-62
2024/01/31 20:57:47;;;;;;;12.30;8.77;;;;;;;;;;10450411;28;20071;-62
2024/01/31 21:02:47;;;;;;;16.35;9.43;;;;;;;;;;10439420;28;20025;-61
2024/01/31 21:07:48;;;;;;;17.60;8.70;;;;;;;;;;10437420;28;20029;-60
2024/01/31 21:12:49;;;;;;;12.27;8.85;;;;;;;;;;10437516;28;20021;-60
2024/01/31 21:17:50;;;;;;;12.00;9.07;;;;;;;;;;10435411;28;20567;-61
2024/01/31 21:22:51;;;;;;;22.73;10.80;;;;;;;;;;10424073;28;20295;-62
2024/01/31 21:27:51;;;;;;;23.20;10.02;;;;;;;;;;10431306;28;20389;-60
2024/01/31 21:32:54;;;;;;;18.55;10.50;;;;;;;;;;10440315;28;20406;-62
2024/01/31 21:37:54;;;;;;;27.60;9.82;;;;;;;;;;10418719;28;20041;-62
2024/01/31 21:42:55;;;;;;;19.75;12.07;;;;;;;;;;10412676;28;20432;-62
2024/01/31 21:47:55;;;;;;;21.77;12.70;;;;;;;;;;10421551;28;20404;-62
2024/01/31 21:52:57;;;;;;;22.38;13.65;;;;;;;;;;10421872;28;20389;-62
2024/01/31 21:57:58;;;;;;;20.95;12.75;;;;;;;;;;10406020;28;20041;-63
2024/01/31 22:02:59;;;;;;;18.80;12.65;;;;;;;;;;10400983;28;20045;-62
2024/01/31 22:07:59;;;;;;;25.90;13.43;;;;;;;;;;10421579;28;20744;-63
2024/01/31 22:13:00;;;;;;;18.85;12.75;;;;;;;;;;10437883;28;20048;-62
2024/01/31 22:18:01;;;;;;;20.38;12.82;;;;;;;;;;10411452;28;20021;-62
2024/01/31 22:23:01;;;;;;;21.55;13.20;;;;;;;;;;10404868;28;20034;-63
2024/01/31 22:28:02;;;;;;;24.65;14.80;;;;;;;;;;10423962;28;20523;-63
2024/01/31 22:33:03;;;;;;;21.75;14.73;;;;;;;;;;10415687;28;20032;-62
2024/01/31 22:38:04;;;;;;;23.00;13.93;;;;;;;;;;10412747;28;20049;-61
2024/01/31 22:43:05;;;;;;;20.85;13.48;;;;;;;;;;10413925;28;20061;-61
2024/01/31 22:48:06;;;;;;;27.08;13.55;;;;;;;;;;10421428;28;20291;-62
2024/01/31 22:53:06;;;;;;;23.00;13.45;;;;;;;;;;10408331;28;20461;-62
2024/01/31 22:58:07;;;;;;;27.90;13.07;;;;;;;;;;10399906;28;20033;-61
2024/01/31 23:03:09;;;;;;;21.95;13.90;;;;;;;;;;10410101;28;20030;-62
2024/01/31 23:08:09;;;;;;;21.92;12.75;;;;;;;;;;10410987;28;20654;-61
2024/01/31 23:13:10;;;;;;;18.75;12.73;;;;;;;;;;10440376;28;20028;-62
2024/01/31 23:18:11;;;;;;;21.58;12.82;;;;;;;;;;10430573;28;20052;-61
2024/01/31 23:23:11;;;;;;;17.17;12.32;;;;;;;;;;10436917;28;20053;-61
2024/01/31 23:28:12;;;;;;;16.20;11.70;;;;;;;;;;10437666;28;20017;-62
2024/01/31 23:33:12;;;;;;;25.13;12.55;;;;;;;;;;10443043;28;20040;-62
2024/01/31 23:38:13;;;;;;;17.92;12.52;;;;;;;;;;10436399;28;20041;-62
2024/01/31 23:43:14;;;;;;;19.77;11.98;;;;;;;;;;10419538;28;20025;-63
2024/01/31 23:48:15;;;;;;;23.98;12.15;;;;;;;;;;10435885;28;20029;-62
2024/01/31 23:53:15;;;;;;;16.25;11.85;;;;;;;;;;10449965;28;20035;-63
2024/01/31 23:58:16;;;;;;;16.42;10.98;;;;;;;;;;10438387;28;20014;-62
